Surface/Precipitation History
01/19/2017 08:59  to  1/20/2017 08:59
Change End Date:
Date/Time
(MST)
Sf
Temp Chem Water Layer Surface Precipitation
Sfc Pvt Sub Frz Factor Pct Dpth DpthThk IcePct Cond Salin FI Type Intens Accum Rate
01/20/2017 08:57 Ice Watch 21.2F - 24F - 65 - - - - 0 mhos 85 - None None - -
01/20/2017 08:55 Ice Watch 21.2F - 24F - 65 - - - - 0 mhos 85 - None None - -
01/20/2017 08:45 Ice Watch 21.0F - 24F - 65 - - - - 0 mhos 87 - None None - -
01/20/2017 08:42 Ice Watch 21.0F - 24F - 70 - - - - 0 mhos 87 - None None - -
01/20/2017 08:35 Ice Watch 21.0F - 24F - 65 - - - - 0 mhos 88 - None None - -
01/20/2017 08:27 Ice Watch 21.0F - 24F - 65 - - - - 0 mhos 88 - None None - -
01/20/2017 08:25 Ice Watch 21.0F - 24F - 65 - - - - 0 mhos 88 - None None - -
01/20/2017 08:15 Ice Watch 21.0F - 25F - 65 - - - - 0 mhos 88 - None None - -
01/20/2017 08:12 Ice Watch 21.2F - 25F - 65 - - - - 0 mhos 87 - None None - -
01/20/2017 08:05 Ice Watch 21.2F - 25F - 70 - - - - 0 mhos 87 - None None - -
01/20/2017 07:57 Ice Watch 21.4F - 25F - 70 - - - - 0 mhos 86 - None None - -
01/20/2017 07:55 Ice Watch 21.4F - 25F - 70 - - - - 0 mhos 86 - None None - -
01/20/2017 07:45 Ice Watch 21.7F - 25F - 70 - - - - 0 mhos 84 - None None - -
01/20/2017 07:42 Ice Watch 21.7F - 25F - 70 - - - - 0 mhos 84 - None None - -
01/20/2017 07:35 Ice Watch 21.9F - 26F - 70 - - - - 0 mhos 83 - None None - -
Date/Time
(MST)
Sf
Temp Chem Water Layer Surface Precipitation
Sfc Pvt Sub Frz Factor Pct Dpth DpthThk IcePct Cond Salin FI Type Intens Accum Rate
01/20/2017 07:27 Ice Watch 22.1F - 26F - 70 - - - - 0 mhos 81 - None None - -
01/20/2017 07:25 Ice Watch 22.1F - 26F - 70 - - - - 0 mhos 81 - None None - -
01/20/2017 07:15 Ice Watch 22.5F - 26F - 75 - - - - 0 mhos 78 - None None - -
01/20/2017 07:12 Ice Watch 22.5F - 26F - 75 - - - - 0 mhos 79 - None None - -
01/20/2017 07:05 Ice Watch 22.8F - 26F - 75 - - - - 0 mhos 77 - None None - -
01/20/2017 06:57 Ice Watch 23.2F - 26F - 75 - - - - 0 mhos 75 - None None - -
01/20/2017 06:55 Ice Watch 23.2F - 26F - 75 - - - - 0 mhos 75 - None None - -
01/20/2017 06:45 Ice Watch 23.5F - 26F - 80 - - - - 0 mhos 72 - None None - -
01/20/2017 06:42 Ice Watch 23.7F - 26F - 80 - - - - 0 mhos 71 - None None - -
01/20/2017 06:35 Ice Watch 24.1F - 27F - 80 - - - - 0 mhos 70 - None None - -
01/20/2017 06:27 Ice Watch 24.3F - 27F - 80 - - - - 0 mhos 69 - None None - -
01/20/2017 06:25 Ice Watch 24.3F - 27F - 85 - - - - 0 mhos 69 - None None - -
01/20/2017 06:14 Ice Watch 24.4F - 27F - 85 - - - - 0 mhos 68 - None None - -
01/20/2017 06:12 Ice Watch 24.4F - 27F - 85 - - - - 0 mhos 69 - None None - -
01/20/2017 06:04 Ice Watch 24.8F - 27F - 85 - - - - 0 mhos 67 - None None - -
Date/Time
(MST)
Sf
Temp Chem Water Layer Surface Precipitation
Sfc Pvt Sub Frz Factor Pct Dpth DpthThk IcePct Cond Salin FI Type Intens Accum Rate
01/20/2017 05:57 Ice Watch 24.8F - 27F - 85 - - - - 0 mhos 68 - None None - -
01/20/2017 05:54 Ice Watch 24.8F - 27F - 90 - - - - 0 mhos 68 - None None - -
01/20/2017 05:44 Ice Watch 25.0F - 27F - 90 - - - - 0 mhos 67 - None None - -
01/20/2017 05:42 Ice Watch 25.0F - 27F - 90 - - - - 0 mhos 67 - None None - -
01/20/2017 05:34 Ice Watch 25.0F - 27F - 95 - - - - 0 mhos 67 - None None - -
01/20/2017 05:27 Ice Watch 24.8F - 27F - 95 - - - - 0 mhos 68 - None None - -
01/20/2017 05:24 Ice Watch 24.8F - 27F - 95 - - - - 0 mhos 68 - None None - -
01/20/2017 05:14 Ice Watch 25.0F - 27F - 95 - - - - 0 mhos 67 - None None - -
01/20/2017 05:12 Ice Watch 25.2F - 27F - 95 - - - - 0 mhos 66 - None None - -
01/20/2017 05:04 Ice Watch 25.2F - 28F - 95 - - - - 0 mhos 66 - None None - -
01/20/2017 04:57 Ice Watch 25.3F - 28F - 95 - - - - 0 mhos 64 - None None - -
01/20/2017 04:54 Ice Watch 25.5F - 28F - 95 - - - - 0 mhos 64 - None None - -
01/20/2017 04:44 Ice Watch 25.5F - 28F - 95 - - - - 0 mhos 63 - None None - -
01/20/2017 04:42 Ice Watch 25.5F - 28F - 95 - - - - 0 mhos 63 - None None - -
01/20/2017 04:34 Ice Watch 25.5F - 28F - 95 - - - - 0 mhos 63 - None None - -
Date/Time
(MST)
Sf
Temp Chem Water Layer Surface Precipitation
Sfc Pvt Sub Frz Factor Pct Dpth DpthThk IcePct Cond Salin FI Type Intens Accum Rate
01/20/2017 04:27 Ice Watch 25.5F - 28F - 95 - - - - 0 mhos 63 - None None - -
01/20/2017 04:24 Ice Watch 25.5F - 28F - 95 - - - - 0 mhos 63 - None None - -
01/20/2017 04:14 Ice Watch 25.3F - 28F - 95 - - - - 0 mhos 64 - None None - -
01/20/2017 04:12 Ice Watch 25.2F - 28F - 95 - - - - 0 mhos 65 - None None - -
01/20/2017 04:04 Ice Watch 24.8F - 28F - 95 - - - - 0 mhos 66 - None None - -
01/20/2017 03:57 Ice Watch 24.8F - 28F - 95 - - - - 0 mhos 66 - None None - -
01/20/2017 03:54 Ice Watch 24.8F - 28F - 95 - - - - 0 mhos 65 - None None - -
01/20/2017 03:44 Ice Watch 25.0F - 28F - 95 - - - - 0 mhos 64 - None None - -
01/20/2017 03:42 Ice Watch 25.0F - 28F - 95 - - - - 0 mhos 64 - None None - -
01/20/2017 03:34 Ice Watch 25.2F - 28F - 95 - - - - 0 mhos 63 - None None - -
01/20/2017 03:27 Ice Watch 25.2F - 28F - 95 - - - - 0 mhos 62 - None None - -
01/20/2017 03:24 Ice Watch 25.3F - 28F - 95 - - - - 0 mhos 61 - None None - -
01/20/2017 03:13 Ice Watch 25.5F - 29F - 95 - - - - 0 mhos 59 - None None - -
01/20/2017 03:12 Ice Watch 25.7F - 29F - 95 - - - - 0 mhos 58 - None None - -
01/20/2017 03:03 Ice Watch 26.1F - 29F - 95 - - - - 0 mhos 56 - None None - -
Date/Time
(MST)
Sf
Temp Chem Water Layer Surface Precipitation
Sfc Pvt Sub Frz Factor Pct Dpth DpthThk IcePct Cond Salin FI Type Intens Accum Rate
01/20/2017 02:57 Ice Watch 26.2F - 29F - 95 - - - - 0 mhos 56 - None None - -
01/20/2017 02:53 Ice Watch 26.4F - 29F - 95 - - - - 0 mhos 56 - None None - -
01/20/2017 02:43 Ice Watch 26.8F - 29F - 95 - - - - 0 mhos 60 - None None - -
01/20/2017 02:42 Ice Watch 26.8F - 29F - 95 - - - - 0 mhos 60 - None None - -
01/20/2017 02:33 Ice Watch 27.0F - 29F - 95 - - - - 0 mhos 60 - None None - -
01/20/2017 02:27 Ice Watch 27.0F - 29F - 95 - - - - 0 mhos 61 - None None - -
01/20/2017 02:23 Ice Watch 27.0F - 29F - 95 - - - - 0 mhos 61 - None None - -
01/20/2017 02:13 Ice Watch 27.0F - 29F - 95 - - - - 0 mhos 61 - None None - -
01/20/2017 02:12 Ice Watch 27.0F - 29F - 95 - - - - 0 mhos 61 - None None - -
01/20/2017 02:03 Ice Watch 27.1F - 29F - 95 - - - - 0 mhos 61 - None None - -
01/20/2017 01:57 Ice Watch 27.3F - 29F - 95 - - - - 0 mhos 61 - None None - -
01/20/2017 01:53 Ice Watch 27.5F - 29F - 95 - - - - 0 mhos 61 - None None - -
01/20/2017 01:43 Ice Watch 27.7F - 30F - 95 - - - - 0 mhos 60 - None None - -
01/20/2017 01:42 Ice Watch 27.7F - 30F - 95 - - - - 0 mhos 60 - None None - -
01/20/2017 01:33 Ice Watch 27.7F - 30F - 95 - - - - 0 mhos 61 - None None - -
Date/Time
(MST)
Sf
Temp Chem Water Layer Surface Precipitation
Sfc Pvt Sub Frz Factor Pct Dpth DpthThk IcePct Cond Salin FI Type Intens Accum Rate
01/20/2017 01:27 Ice Watch 27.9F - 30F - 95 - - - - 0 mhos 60 - None None - -
01/20/2017 01:23 Ice Watch 27.9F - 30F - 95 - - - - 0 mhos 60 - None None - -
01/20/2017 01:13 Ice Watch 28.0F - 30F - 85 - - - - 0 mhos 60 - None None - -
01/20/2017 01:12 Ice Watch 28.0F - 30F - 85 - - - - 0 mhos 60 - None None - -
01/20/2017 01:03 Ice Watch 28.2F - 30F - 70 - - - - 0 mhos 59 - None None - -
01/20/2017 00:57 Ice Watch 28.2F - 30F - 70 - - - - 0 mhos 62 - None None - -
01/20/2017 00:53 Ice Watch 28.2F - 30F - 80 - - - - 0 mhos 67 - None None - -
01/20/2017 00:43 Ice Watch 28.2F - 30F - 75 - - - - 0 mhos 61 - None None - -
01/20/2017 00:42 Ice Watch 28.2F - 30F - 75 - - - - 0 mhos 61 - None None - -
01/20/2017 00:33 Ice Watch 28.8F - 30F - 45 - - - - 0 mhos 45 - None None - -
01/20/2017 00:27 Ice Watch 28.8F - 30F - 40 - - - - 0 mhos 43 - None None - -
01/20/2017 00:23 Ice Watch 28.8F - 30F - 40 - - - - 0 mhos 44 - None None - -
01/20/2017 00:12 Ice Watch 28.6F - 30F - 40 - - - - 0 mhos 45 - None None - -
01/20/2017 00:12 Ice Watch 28.6F - 30F - 40 - - - - 0 mhos 45 - None None - -
01/20/2017 00:02 Ice Watch 28.6F - 30F - 40 - - - - 0 mhos 46 - None None - -
Date/Time
(MST)
Sf
Temp Chem Water Layer Surface Precipitation
Sfc Pvt Sub Frz Factor Pct Dpth DpthThk IcePct Cond Salin FI Type Intens Accum Rate
01/19/2017 23:57 Ice Watch 28.6F - 30F - 45 - - - - 0 mhos 46 - None None - -
01/19/2017 23:52 Ice Watch 28.4F - 30F - 45 - - - - 0 mhos 47 - None None - -
01/19/2017 23:42 Ice Watch 28.4F - 30F - 50 - - - - 0 mhos 48 - None None - -
01/19/2017 23:42 Ice Watch 28.4F - 30F - 50 - - - - 0 mhos 48 - None None - -
01/19/2017 23:32 Ice Watch 28.4F - 30F - 50 - - - - 0 mhos 48 - None None - -
01/19/2017 23:27 Ice Watch 28.4F - 30F - 55 - - - - 0 mhos 48 - None None - -
01/19/2017 23:22 Ice Watch 28.6F - 30F - 55 - - - - 0 mhos 48 - None None - -
01/19/2017 23:12 Ice Watch 28.4F - 31F - 55 - - - - 0 mhos 48 - None None - -
01/19/2017 23:12 Ice Watch 28.4F - 31F - 55 - - - - 0 mhos 48 - None None - -
01/19/2017 23:02 Ice Watch 28.6F - 31F - 55 - - - - 0 mhos 47 - None None - -
01/19/2017 22:57 Ice Watch 28.8F - 31F - 55 - - - - 0 mhos 46 - None None - -
01/19/2017 22:52 Ice Watch 28.6F - 31F - 55 - - - - 0 mhos 46 - None None - -
01/19/2017 22:42 Ice Watch 28.8F - 31F - 50 - - - - 0 mhos 44 - None None - -
01/19/2017 22:42 Ice Watch 28.8F - 31F - 50 - - - - 0 mhos 44 - None None - -
01/19/2017 22:32 Ice Watch 28.8F - 31F - 50 - - - - 0 mhos 42 - None None - -
Date/Time
(MST)
Sf
Temp Chem Water Layer Surface Precipitation
Sfc Pvt Sub Frz Factor Pct Dpth DpthThk IcePct Cond Salin FI Type Intens Accum Rate
01/19/2017 22:27 Ice Watch 28.8F - 31F - 45 - - - - 0 mhos 42 - None None - -
01/19/2017 22:22 Ice Watch 28.8F - 31F - 45 - - - - 0 mhos 42 - None None - -
01/19/2017 22:12 Ice Watch 28.9F - 31F - 45 - - - - 0 mhos 40 - None None - -
01/19/2017 22:12 Ice Watch 28.9F - 31F - 45 - - - - 0 mhos 40 - None None - -
01/19/2017 22:02 Ice Watch 29.1F - 31F - 45 - - - - 0 mhos 39 - None None - -
01/19/2017 21:57 Ice Watch 29.3F - 31F - 45 - - - - 0 mhos 38 - None None - -
01/19/2017 21:52 Ice Watch 29.3F - 31F - 45 - - - - 0 mhos 38 - None None - -
01/19/2017 21:42 Ice Watch 29.3F - 31F - 40 - - - - 0 mhos 37 - None None - -
01/19/2017 21:42 Ice Watch 29.3F - 31F - 40 - - - - 0 mhos 37 - None None - -
01/19/2017 21:32 Ice Watch 29.5F - 31F - 40 - - - - 0 mhos 36 - None None - -
01/19/2017 21:27 Ice Watch 29.5F - 31F - 40 - - - - 0 mhos 35 - None None - -
01/19/2017 21:22 Ice Watch 29.5F - 31F - 40 - - - - 0 mhos 35 - None None - -
01/19/2017 21:12 Ice Watch 29.3F - 31F - 40 - - - - 0 mhos 35 - None None - -
01/19/2017 21:12 Ice Watch 29.3F - 31F - 40 - - - - 0 mhos 35 - None None - -
01/19/2017 21:01 Ice Watch 29.3F - 31F - 40 - - - - 0 mhos 35 - None None - -
Date/Time
(MST)
Sf
Temp Chem Water Layer Surface Precipitation
Sfc Pvt Sub Frz Factor Pct Dpth DpthThk IcePct Cond Salin FI Type Intens Accum Rate
01/19/2017 20:57 Ice Watch 29.1F - 31F - 40 - - - - 0 mhos 35 - None None - -
01/19/2017 20:51 Ice Watch 29.1F - 31F - 40 - - - - 0 mhos 35 - None None - -
01/19/2017 20:42 Ice Watch 28.9F - 31F - 40 - - - - 0 mhos 35 - None None - -
01/19/2017 20:41 Ice Watch 28.9F - 31F - 40 - - - - 0 mhos 35 - None None - -
01/19/2017 20:31 Ice Watch 28.9F - 31F - 40 - - - - 0 mhos 34 - None None - -
01/19/2017 20:27 Ice Watch 28.9F - 31F - 40 - - - - 0 mhos 33 - None None - -
01/19/2017 20:21 Ice Watch 28.8F - 31F - 40 - - - - 0 mhos 32 - None None - -
01/19/2017 20:12 Ice Watch 28.9F - 31F - 35 - - - - 0 mhos 30 - None None - -
01/19/2017 20:11 Ice Watch 29.1F - 31F - 35 - - - - 0 mhos 29 - None None - -
01/19/2017 20:01 Ice Watch 29.5F - 31F - 35 - - - - 0 mhos 26 - None None - -
01/19/2017 19:57 Ice Watch 29.5F - 31F - 35 - - - - 0 mhos 25 - None None - -
01/19/2017 19:51 Ice Watch 29.7F - 31F - 35 - - - - 0 mhos 23 - None None - -
01/19/2017 19:42 Ice Watch 29.8F - 31F - 30 - - - - 0 mhos 20 - None None - -
01/19/2017 19:41 Ice Watch 29.8F - 31F - 30 - - - - 0 mhos 20 - None None - -
01/19/2017 19:31 Ice Watch 30.0F - 31F - 30 - - - - 0 mhos 16 - None None - -
Date/Time
(MST)
Sf
Temp Chem Water Layer Surface Precipitation
Sfc Pvt Sub Frz Factor Pct Dpth DpthThk IcePct Cond Salin FI Type Intens Accum Rate
01/19/2017 19:27 Ice Watch 30.0F - 31F - 30 - - - - 0 mhos 15 - None None - -
01/19/2017 19:21 Ice Watch 30.2F - 31F - 30 - - - - 0 mhos 13 - None None - -
01/19/2017 19:12 Ice Watch 30.4F - 31F - 30 - - - - 0 mhos 9 - None None - -
01/19/2017 19:11 Ice Watch 30.4F - 31F - 30 - - - - 0 mhos 9 - None None - -
01/19/2017 19:01 Ice Watch 30.4F - 31F - 25 - - - - 0 mhos 7 - None None - -
01/19/2017 18:57 Ice Watch 30.6F - 31F - 25 - - - - 0 mhos 7 - None None - -
01/19/2017 18:51 Ice Watch 30.7F - 31F - 25 - - - - 0 mhos 6 - None None - -
01/19/2017 18:42 Ice Watch 30.9F - 31F - 25 - - - - 0 mhos 5 - None None - -
01/19/2017 18:41 Ice Watch 30.9F - 31F - 25 - - - - 0 mhos 5 - None None - -
01/19/2017 18:31 Ice Watch 31.1F - 31F - 20 - - - - 0 mhos 4 - None None - -
01/19/2017 18:27 Ice Watch 31.1F - 32F - 20 - - - - 0 mhos 4 - None None - -
01/19/2017 18:21 Ice Watch 31.1F - 32F - 20 - - - - 0 mhos 4 - None None - -
01/19/2017 18:12 Ice Watch 31.5F - 32F - 15 - - - - 0 mhos 3 - None None - -
01/19/2017 18:11 Ice Watch 31.5F - 32F - 15 - - - - 0 mhos 3 - None None - -
01/19/2017 18:00 Ice Watch 31.8F - 32F - 10 - - - - 0 mhos 3 - None None - -
Date/Time
(MST)
Sf
Temp Chem Water Layer Surface Precipitation
Sfc Pvt Sub Frz Factor Pct Dpth DpthThk IcePct Cond Salin FI Type Intens Accum Rate
01/19/2017 17:57 Ice Watch 32.0F - 32F - 10 - - - - 0 mhos 3 - None None - -
01/19/2017 17:50 Trace Moisture 32.2F - 32F - 10 - - - - 0 mhos 2 - None None - -
01/19/2017 17:42 Trace Moisture 32.4F - 33F - 10 - - - - 0 mhos 2 - None None - -
01/19/2017 17:40 Trace Moisture 32.4F - 33F - 5 - - - - 0 mhos 2 - None None - -
01/19/2017 17:30 Trace Moisture 32.9F - 33F - 5 - - - - 0 mhos 1 - None None - -
01/19/2017 17:27 Trace Moisture 33.1F - 33F - 5 - - - - 0 mhos 1 - None None - -
01/19/2017 17:20 Trace Moisture 33.4F - 33F - 5 - - - - 0 mhos 1 - None None - -
01/19/2017 17:12 Trace Moisture 33.8F - 34F - 5 - - - - 0 mhos 1 - None None - -
01/19/2017 17:10 Trace Moisture 33.8F - 34F - 5 - - - - 0 mhos 1 - None None - -
01/19/2017 17:00 Trace Moisture 34.5F - 34F - 5 - - - - 0 mhos 1 - None None - -
01/19/2017 16:57 Trace Moisture 34.9F - 34F - 5 - - - - 0 mhos 1 - None None - -
01/19/2017 16:50 Trace Moisture 35.6F - 34F - 5 - - - - 0 mhos 1 - None None - -
01/19/2017 16:42 Trace Moisture 36.1F - 35F - 5 - - - - 0 mhos 1 - None None - -
01/19/2017 16:40 Trace Moisture 36.1F - 35F - 5 - - - - 0 mhos 0 - None None - -
01/19/2017 16:30 Trace Moisture 36.9F - 35F - 5 - - - - 0 mhos 0 - None None - -
Date/Time
(MST)
Sf
Temp Chem Water Layer Surface Precipitation
Sfc Pvt Sub Frz Factor Pct Dpth DpthThk IcePct Cond Salin FI Type Intens Accum Rate
01/19/2017 16:27 Trace Moisture 37.0F - 35F - 5 - - - - 0 mhos 0 - None None - -
01/19/2017 16:20 Trace Moisture 37.9F - 35F - 5 - - - - 0 mhos 0 - None None - -
01/19/2017 16:12 Trace Moisture 38.7F - 35F - 5 - - - - 0 mhos 0 - None None - -
01/19/2017 16:10 Trace Moisture 38.8F - 35F - 5 - - - - 0 mhos 0 - None None - -
01/19/2017 16:00 Trace Moisture 39.0F - 35F - 5 - - - - 0 mhos 0 - None None - -
01/19/2017 15:57 Trace Moisture 39.0F - 35F - 5 - - - - 0 mhos 0 - None None - -
01/19/2017 15:50 Trace Moisture 39.2F - 35F - 5 - - - - 0 mhos 0 - None None - -
01/19/2017 15:42 Trace Moisture 38.8F - 35F - 5 - - - - 0 mhos 0 - None None - -
01/19/2017 15:40 Trace Moisture 38.7F - 35F - 5 - - - - 0 mhos 0 - None None - -
01/19/2017 15:30 Trace Moisture 38.8F - 35F - 5 - - - - 0 mhos 0 - None None - -
01/19/2017 15:27 Trace Moisture 38.8F - 35F - 5 - - - - 0 mhos 0 - None None - -
01/19/2017 15:20 Trace Moisture 39.0F - 35F - 5 - - - - 0 mhos 0 - None None - -
01/19/2017 15:12 Trace Moisture 39.4F - 35F - 5 - - - - 0 mhos 0 - None None - -
01/19/2017 15:09 Trace Moisture 39.7F - 35F - 5 - - - - 0 mhos 0 - None None - -
01/19/2017 14:59 Trace Moisture 40.3F - 35F - 5 - - - - 0 mhos 0 - None None - -
Date/Time
(MST)
Sf
Temp Chem Water Layer Surface Precipitation
Sfc Pvt Sub Frz Factor Pct Dpth DpthThk IcePct Cond Salin FI Type Intens Accum Rate
01/19/2017 14:57 Trace Moisture 40.5F - 35F - 5 - - - - 0 mhos 0 - None None - -
01/19/2017 14:49 Trace Moisture 40.6F - 35F - 5 - - - - 0 mhos 0 - None None - -
01/19/2017 14:42 Trace Moisture 41.0F - 35F - 5 - - - - 0 mhos 0 - None None - -
01/19/2017 14:39 Trace Moisture 41.4F - 35F - 5 - - - - 0 mhos 0 - None None - -
01/19/2017 14:29 Trace Moisture 41.4F - 35F - 5 - - - - 0 mhos 0 - None None - -
01/19/2017 14:27 Trace Moisture 41.0F - 35F - 5 - - - - 0 mhos 0 - None None - -
01/19/2017 14:19 Trace Moisture 40.6F - 35F - 5 - - - - 0 mhos 0 - None None - -
01/19/2017 14:12 Trace Moisture 40.5F - 35F - 5 - - - - 0 mhos 0 - None None - -
01/19/2017 14:09 Trace Moisture 40.5F - 35F - 5 - - - - 0 mhos 0 - None None - -
01/19/2017 13:59 Trace Moisture 40.6F - 34F - 5 - - - - 0 mhos 0 - None None - -
01/19/2017 13:57 Trace Moisture 40.6F - 34F - 5 - - - - 0 mhos 0 - None None - -
01/19/2017 13:49 Trace Moisture 40.6F - 34F - 5 - - - - 0 mhos 0 - None None - -
01/19/2017 13:42 Trace Moisture 39.6F - 34F - 5 - - - - 0 mhos 0 - None None - -
01/19/2017 13:39 Trace Moisture 39.6F - 34F - 5 - - - - 0 mhos 0 - None None - -
01/19/2017 13:29 Trace Moisture 39.4F - 34F - 5 - - - - 0 mhos 0 - None None - -
Date/Time
(MST)
Sf
Temp Chem Water Layer Surface Precipitation
Sfc Pvt Sub Frz Factor Pct Dpth DpthThk IcePct Cond Salin FI Type Intens Accum Rate
01/19/2017 13:27 Trace Moisture 39.6F - 34F - 5 - - - - 0 mhos 0 - None None - -
01/19/2017 13:19 Trace Moisture 39.7F - 34F - 5 - - - - 0 mhos 0 - None None - -
01/19/2017 13:12 Trace Moisture 39.9F - 34F - 5 - - - - 0 mhos 0 - None None - -
01/19/2017 13:09 Trace Moisture 40.3F - 33F - 5 - - - - 0 mhos 0 - None None - -
01/19/2017 12:59 Trace Moisture 40.6F - 33F - 5 - - - - 0 mhos 0 - None None - -
01/19/2017 12:57 Trace Moisture 40.6F - 33F - 5 - - - - 0 mhos 0 - None None - -
01/19/2017 12:49 Trace Moisture 41.0F - 33F - 5 - - - - 0 mhos 0 - None None - -
01/19/2017 12:42 Trace Moisture 40.8F - 33F - 5 - - - - 0 mhos 0 - None None - -
01/19/2017 12:39 Trace Moisture 40.8F - 32F - 5 - - - - 0 mhos 0 - None None - -
01/19/2017 12:29 Trace Moisture 40.6F - 32F - 5 - - - - 0 mhos 0 - None None - -
01/19/2017 12:27 Trace Moisture 40.5F - 32F - 5 - - - - 0 mhos 0 - None None - -
01/19/2017 12:19 Trace Moisture 39.9F - 32F - 5 - - - - 0 mhos 0 - None None - -
01/19/2017 12:12 Trace Moisture 39.6F - 31F - 5 - - - - 0 mhos 1 - None None - -
01/19/2017 12:08 Trace Moisture 39.4F - 31F - 5 - - - - 0 mhos 1 - None None - -
01/19/2017 11:58 Trace Moisture 39.2F - 31F - 5 - - - - 0 mhos 1 - None None - -
Date/Time
(MST)
Sf
Temp Chem Water Layer Surface Precipitation
Sfc Pvt Sub Frz Factor Pct Dpth DpthThk IcePct Cond Salin FI Type Intens Accum Rate
01/19/2017 11:57 Trace Moisture 39.0F - 31F - 5 - - - - 0 mhos 1 - None None - -
01/19/2017 11:48 Trace Moisture 38.7F - 31F - 5 - - - - 0 mhos 1 - None None - -
01/19/2017 11:42 Trace Moisture 38.5F - 31F - 5 - - - - 0 mhos 1 - None None - -
01/19/2017 11:38 Trace Moisture 38.5F - 31F - 5 - - - - 0 mhos 1 - None None - -
01/19/2017 11:28 Trace Moisture 38.3F - 30F - 5 - - - - 0 mhos 2 - None None - -
01/19/2017 11:27 Trace Moisture 38.3F - 30F - 5 - - - - 0 mhos 3 - None None - -
01/19/2017 11:18 Trace Moisture 38.1F - 30F - 5 - - - - 0 mhos 5 - None None - -
01/19/2017 11:12 Trace Moisture 37.6F - 30F - 5 - - - - 0 mhos 6 - None None - -
01/19/2017 11:08 Trace Moisture 37.4F - 30F - 5 - - - - 0 mhos 7 - None None - -
01/19/2017 10:58 Trace Moisture 37.2F - 30F - 5 - - - - 0 mhos 11 - None None - -
01/19/2017 10:57 Trace Moisture 37.0F - 30F - 5 - - - - 0 mhos 12 - None None - -
01/19/2017 10:48 Trace Moisture 36.7F - 29F - 5 - - - - 0 mhos 14 - None None - -
01/19/2017 10:42 Trace Moisture 35.6F - 29F - 10 - - - - 0 mhos 16 - None None - -
01/19/2017 10:38 Trace Moisture 35.2F - 29F - 15 - - - - 0 mhos 17 - None None - -
01/19/2017 10:28 Trace Moisture 34.2F - 29F - 15 - - - - 0 mhos 19 - None None - -
Date/Time
(MST)
Sf
Temp Chem Water Layer Surface Precipitation
Sfc Pvt Sub Frz Factor Pct Dpth DpthThk IcePct Cond Salin FI Type Intens Accum Rate
01/19/2017 10:27 Trace Moisture 33.8F - 29F - 15 - - - - 0 mhos 20 - None None - -
01/19/2017 10:18 Trace Moisture 33.4F - 29F - 20 - - - - 0 mhos 22 - None None - -
01/19/2017 10:12 Trace Moisture 33.1F - 29F - 25 - - - - 0 mhos 23 - None None - -
01/19/2017 10:08 Trace Moisture 32.5F - 29F - 20 - - - - 0 mhos 24 - None None - -
01/19/2017 09:58 Ice Watch 32.0F - 28F - 20 - - - - 0 mhos 26 - None None - -
01/19/2017 09:48 Ice Watch 31.1F - 28F - 25 - - - - 0 mhos 29 - None None - -
01/19/2017 09:42 Ice Watch 30.9F - 28F - 20 - - - - 0 mhos 29 - None None - -
01/19/2017 09:38 Ice Watch 30.4F - 28F - 20 - - - - 0 mhos 31 - None None - -
01/19/2017 09:28 Ice Watch 29.7F - 28F - 25 - - - - 0 mhos 35 - None None - -
01/19/2017 09:27 Ice Watch 29.7F - 28F - 25 - - - - 0 mhos 35 - None None - -
01/19/2017 09:18 Ice Watch 28.9F - 28F - 30 - - - - 0 mhos 39 - None None - -
01/19/2017 09:12 Ice Watch 28.8F - 28F - 30 - - - - 0 mhos 40 - None None - -
01/19/2017 09:08 Ice Watch 28.8F - 28F - 30 - - - - 0 mhos 41 - None None - -
Change End Date:

Copyright © 1998-2015 Vaisala, Inc.
All Rights Reserved
Send comments about the data to:
SCAN Web ® is a registered trademark of Vaisala, Inc.
SCAN Web Version 6.0